sensor_id;sensor_type;location;lat;lon;timestamp;pressure;altitude;pressure_sealevel;temperature;humidity
7662;BME280;30314;48.184;11.510;2022-09-06T04:52:11;96175.72;;;13.00;100.00
7662;BME280;30314;48.184;11.510;2022-09-06T04:54:39;96159.13;;;12.94;100.00
7662;BME280;30314;48.184;11.510;2022-09-06T04:57:07;96175.31;;;12.92;100.00
7662;BME280;30314;48.184;11.510;2022-09-06T04:59:35;96096.97;;;12.44;100.00
7662;BME280;30314;48.184;11.510;2022-09-06T05:02:02;96167.34;;;12.92;100.00
7662;BME280;30314;48.184;11.510;2022-09-06T05:04:30;96174.03;;;13.04;100.00
7662;BME280;30314;48.184;11.510;2022-09-06T05:06:59;96176.69;;;13.04;100.00
7662;BME280;30314;48.184;11.510;2022-09-06T05:09:28;96134.59;;;12.74;100.00
7662;BME280;30314;48.184;11.510;2022-09-06T05:11:56;96168.72;;;13.04;100.00
7662;BME280;30314;48.184;11.510;2022-09-06T05:14:24;96185.72;;;13.17;100.00
7662;BME280;30314;48.184;11.510;2022-09-06T05:16:52;96187.28;;;13.18;100.00
7662;BME280;30314;48.184;11.510;2022-09-06T05:19:20;96154.50;;;12.86;100.00
7662;BME280;30314;48.184;11.510;2022-09-06T05:21:49;96207.91;;;13.21;100.00
7662;BME280;30314;48.184;11.510;2022-09-06T05:24:17;96126.13;;;12.72;100.00
7662;BME280;30314;48.184;11.510;2022-09-06T05:26:47;96206.75;;;13.27;100.00
7662;BME280;30314;48.184;11.510;2022-09-06T05:29:14;96148.63;;;12.89;100.00
7662;BME280;30314;48.184;11.510;2022-09-06T05:31:42;96154.31;;;12.82;100.00
7662;BME280;30314;48.184;11.510;2022-09-06T05:34:10;96228.84;;;13.50;100.00
7662;BME280;30314;48.184;11.510;2022-09-06T05:36:38;96145.84;;;12.94;100.00
7662;BME280;30314;48.184;11.510;2022-09-06T05:39:07;96228.56;;;13.75;100.00
7662;BME280;30314;48.184;11.510;2022-09-06T05:41:35;96154.97;;;13.38;100.00
7662;BME280;30314;48.184;11.510;2022-09-06T05:44:04;96229.94;;;13.95;100.00
7662;BME280;30314;48.184;11.510;2022-09-06T05:46:32;96225.28;;;14.01;100.00
7662;BME280;30314;48.184;11.510;2022-09-06T05:49:00;96206.34;;;13.93;100.00
7662;BME280;30314;48.184;11.510;2022-09-06T05:51:33;96203.56;;;13.99;100.00
7662;BME280;30314;48.184;11.510;2022-09-06T05:54:00;96149.56;;;13.66;100.00
7662;BME280;30314;48.184;11.510;2022-09-06T05:56:28;96228.13;;;14.27;100.00
7662;BME280;30314;48.184;11.510;2022-09-06T05:58:56;96194.44;;;14.14;100.00
7662;BME280;30314;48.184;11.510;2022-09-06T06:01:28;96268.63;;;14.56;100.00
7662;BME280;30314;48.184;11.510;2022-09-06T06:03:57;96266.44;;;14.58;100.00
7662;BME280;30314;48.184;11.510;2022-09-06T06:06:27;96275.06;;;14.63;100.00
7662;BME280;30314;48.184;11.510;2022-09-06T06:08:55;96286.19;;;14.65;100.00
7662;BME280;30314;48.184;11.510;2022-09-06T06:11:23;96117.34;;;13.59;100.00
7662;BME280;30314;48.184;11.510;2022-09-06T06:13:52;96268.50;;;14.61;100.00
7662;BME280;30314;48.184;11.510;2022-09-06T06:16:21;96180.41;;;13.99;100.00
7662;BME280;30314;48.184;11.510;2022-09-06T06:18:50;96204.97;;;14.28;100.00
7662;BME280;30314;48.184;11.510;2022-09-06T06:21:20;96279.59;;;14.86;100.00
7662;BME280;30314;48.184;11.510;2022-09-06T06:23:50;96265.94;;;14.78;100.00
7662;BME280;30314;48.184;11.510;2022-09-06T06:26:18;96221.09;;;14.63;100.00
7662;BME280;30314;48.184;11.510;2022-09-06T06:28:46;96220.84;;;14.73;100.00
7662;BME280;30314;48.184;11.510;2022-09-06T06:31:15;96169.72;;;14.54;100.00
7662;BME280;30314;48.184;11.510;2022-09-06T06:33:43;96268.44;;;15.24;100.00
7662;BME280;30314;48.184;11.510;2022-09-06T06:36:21;96154.63;;;14.40;100.00
7662;BME280;30314;48.184;11.510;2022-09-06T06:38:51;96196.66;;;14.61;100.00
7662;BME280;30314;48.184;11.510;2022-09-06T06:41:21;96218.88;;;14.97;100.00
7662;BME280;30314;48.184;11.510;2022-09-06T06:43:51;96178.28;;;14.73;100.00
7662;BME280;30314;48.184;11.510;2022-09-06T06:46:20;96283.69;;;15.50;100.00
7662;BME280;30314;48.184;11.510;2022-09-06T06:48:49;96289.34;;;15.57;100.00
7662;BME280;30314;48.184;11.510;2022-09-06T06:51:23;96270.22;;;15.64;100.00
7662;BME280;30314;48.184;11.510;2022-09-06T06:53:51;96284.50;;;15.77;100.00
7662;BME280;30314;48.184;11.510;2022-09-06T06:56:22;96265.22;;;15.80;100.00
7662;BME280;30314;48.184;11.510;2022-09-06T06:58:51;96265.88;;;16.03;100.00
7662;BME280;30314;48.184;11.510;2022-09-06T07:01:21;96287.78;;;16.27;100.00
7662;BME280;30314;48.184;11.510;2022-09-06T07:03:49;96264.38;;;16.41;100.00
7662;BME280;30314;48.184;11.510;2022-09-06T07:06:18;96286.13;;;16.70;100.00
7662;BME280;30314;48.184;11.510;2022-09-06T07:08:48;96230.59;;;16.45;100.00
7662;BME280;30314;48.184;11.510;2022-09-06T07:11:17;96220.16;;;16.31;100.00
7662;BME280;30314;48.184;11.510;2022-09-06T07:13:50;96305.38;;;16.93;100.00
7662;BME280;30314;48.184;11.510;2022-09-06T07:16:19;96277.00;;;16.80;100.00
7662;BME280;30314;48.184;11.510;2022-09-06T07:18:49;96246.28;;;16.56;100.00
7662;BME280;30314;48.184;11.510;2022-09-06T07:21:19;96291.25;;;16.93;100.00
7662;BME280;30314;48.184;11.510;2022-09-06T07:24:08;96226.88;;;16.46;100.00
7662;BME280;30314;48.184;11.510;2022-09-06T07:26:37;96300.81;;;16.94;100.00
7662;BME280;30314;48.184;11.510;2022-09-06T07:29:07;96216.56;;;16.27;100.00
7662;BME280;30314;48.184;11.510;2022-09-06T07:31:36;96220.09;;;16.49;100.00
7662;BME280;30314;48.184;11.510;2022-09-06T07:34:24;96279.16;;;16.86;100.00
7662;BME280;30314;48.184;11.510;2022-09-06T07:36:52;96171.69;;;16.12;100.00
7662;BME280;30314;48.184;11.510;2022-09-06T07:39:22;96287.09;;;17.13;100.00
7662;BME280;30314;48.184;11.510;2022-09-06T07:41:50;96277.38;;;17.08;100.00
7662;BME280;30314;48.184;11.510;2022-09-06T07:44:17;96257.75;;;16.95;100.00
7662;BME280;30314;48.184;11.510;2022-09-06T07:46:45;96220.66;;;16.72;100.00
7662;BME280;30314;48.184;11.510;2022-09-06T07:49:13;96280.22;;;17.03;100.00
7662;BME280;30314;48.184;11.510;2022-09-06T07:51:41;96202.22;;;16.49;100.00
7662;BME280;30314;48.184;11.510;2022-09-06T07:54:09;96242.78;;;16.73;100.00
7662;BME280;30314;48.184;11.510;2022-09-06T07:56:57;96278.94;;;17.09;100.00
7662;BME280;30314;48.184;11.510;2022-09-06T07:59:25;96244.59;;;16.90;100.00
7662;BME280;30314;48.184;11.510;2022-09-06T08:01:53;96215.63;;;16.71;100.00
7662;BME280;30314;48.184;11.510;2022-09-06T08:04:21;96143.13;;;16.21;100.00
7662;BME280;30314;48.184;11.510;2022-09-06T08:06:48;96160.81;;;16.34;100.00
7662;BME280;30314;48.184;11.510;2022-09-06T08:09:37;96265.91;;;17.08;100.00
7662;BME280;30314;48.184;11.510;2022-09-06T08:12:07;96245.72;;;17.19;100.00
7662;BME280;30314;48.184;11.510;2022-09-06T08:14:35;96215.59;;;17.10;100.00
7662;BME280;30314;48.184;11.510;2022-09-06T08:17:02;96182.31;;;16.98;100.00
7662;BME280;30314;48.184;11.510;2022-09-06T08:19:30;96234.41;;;17.43;100.00
7662;BME280;30314;48.184;11.510;2022-09-06T08:21:58;96247.72;;;17.52;100.00
7662;BME280;30314;48.184;11.510;2022-09-06T08:24:26;96142.00;;;16.91;100.00
7662;BME280;30314;48.184;11.510;2022-09-06T08:26:57;96217.84;;;17.50;100.00
7662;BME280;30314;48.184;11.510;2022-09-06T08:30:23;96193.34;;;17.48;100.00
7662;BME280;30314;48.184;11.510;2022-09-06T08:32:53;96165.25;;;17.42;100.00
7662;BME280;30314;48.184;11.510;2022-09-06T08:35:20;96230.28;;;17.88;100.00
7662;BME280;30314;48.184;11.510;2022-09-06T08:37:48;96119.31;;;17.27;100.00
7662;BME280;30314;48.184;11.510;2022-09-06T08:40:19;96235.09;;;18.16;100.00
7662;BME280;30314;48.184;11.510;2022-09-06T08:42:47;96251.97;;;18.29;100.00
7662;BME280;30314;48.184;11.510;2022-09-06T08:45:16;96253.22;;;18.44;100.00
7662;BME280;30314;48.184;11.510;2022-09-06T08:47:49;96211.00;;;18.16;100.00
7662;BME280;30314;48.184;11.510;2022-09-06T08:50:18;96253.69;;;18.47;100.00
7662;BME280;30314;48.184;11.510;2022-09-06T08:52:49;96253.47;;;18.52;100.00
7662;BME280;30314;48.184;11.510;2022-09-06T08:55:47;96234.00;;;18.30;100.00
7662;BME280;30314;48.184;11.510;2022-09-06T08:58:31;96251.47;;;18.49;100.00
7662;BME280;30314;48.184;11.510;2022-09-06T09:01:05;96159.09;;;17.96;100.00
7662;BME280;30314;48.184;11.510;2022-09-06T09:03:36;96232.38;;;18.50;100.00
7662;BME280;30314;48.184;11.510;2022-09-06T09:06:05;96193.66;;;18.35;100.00
7662;BME280;30314;48.184;11.510;2022-09-06T09:08:40;96227.16;;;18.66;100.00
7662;BME280;30314;48.184;11.510;2022-09-06T09:11:14;96220.91;;;18.62;100.00
7662;BME280;30314;48.184;11.510;2022-09-06T09:13:50;96220.91;;;18.74;100.00
7662;BME280;30314;48.184;11.510;2022-09-06T09:16:21;96086.09;;;17.83;100.00
7662;BME280;30314;48.184;11.510;2022-09-06T09:18:53;96207.09;;;18.72;100.00
7662;BME280;30314;48.184;11.510;2022-09-06T09:21:23;96092.53;;;17.82;100.00
7662;BME280;30314;48.184;11.510;2022-09-06T09:23:58;96171.34;;;18.43;100.00
7662;BME280;30314;48.184;11.510;2022-09-06T09:26:34;96194.34;;;18.57;100.00
7662;BME280;30314;48.184;11.510;2022-09-06T09:29:05;96141.81;;;18.27;100.00
7662;BME280;30314;48.184;11.510;2022-09-06T09:31:35;96191.03;;;18.85;100.00
7662;BME280;30314;48.184;11.510;2022-09-06T09:34:09;96187.69;;;19.00;100.00
7662;BME280;30314;48.184;11.510;2022-09-06T09:36:38;96113.81;;;18.62;100.00
7662;BME280;30314;48.184;11.510;2022-09-06T09:39:09;96154.97;;;19.07;100.00
7662;BME280;30314;48.184;11.510;2022-09-06T09:41:40;96189.19;;;19.39;100.00
7662;BME280;30314;48.184;11.510;2022-09-06T09:44:14;96195.81;;;19.57;100.00
7662;BME280;30314;48.184;11.510;2022-09-06T09:46:43;96140.38;;;19.33;100.00
7662;BME280;30314;48.184;11.510;2022-09-06T09:49:27;96177.47;;;19.88;100.00
7662;BME280;30314;48.184;11.510;2022-09-06T09:52:04;96177.91;;;20.19;100.00
7662;BME280;30314;48.184;11.510;2022-09-06T09:54:36;96179.91;;;20.22;100.00
7662;BME280;30314;48.184;11.510;2022-09-06T09:57:06;96177.84;;;20.31;100.00
7662;BME280;30314;48.184;11.510;2022-09-06T09:59:41;96168.13;;;20.42;100.00
7662;BME280;30314;48.184;11.510;2022-09-06T10:02:17;96149.59;;;20.37;100.00
7662;BME280;30314;48.184;11.510;2022-09-06T10:04:49;96174.72;;;20.61;100.00
7662;BME280;30314;48.184;11.510;2022-09-06T10:07:19;96173.06;;;20.73;100.00
7662;BME280;30314;48.184;11.510;2022-09-06T10:09:49;96158.34;;;20.82;100.00
7662;BME280;30314;48.184;11.510;2022-09-06T10:12:28;96160.53;;;20.96;100.00
7662;BME280;30314;48.184;11.510;2022-09-06T10:14:56;96166.09;;;21.04;100.00
7662;BME280;30314;48.184;11.510;2022-09-06T10:17:30;96159.03;;;21.15;100.00
7662;BME280;30314;48.184;11.510;2022-09-06T10:20:02;96155.66;;;21.38;100.00
7662;BME280;30314;48.184;11.510;2022-09-06T10:22:41;96155.47;;;21.47;97.18
7662;BME280;30314;48.184;11.510;2022-09-06T10:25:31;96128.56;;;21.47;96.40
7662;BME280;30314;48.184;11.510;2022-09-06T10:28:33;96156.63;;;22.08;93.85
7662;BME280;30314;48.184;11.510;2022-09-06T10:31:24;96124.31;;;22.08;96.80
7662;BME280;30314;48.184;11.510;2022-09-06T10:34:02;96160.19;;;22.39;98.36
7662;BME280;30314;48.184;11.510;2022-09-06T10:36:37;96153.50;;;22.53;94.46
7662;BME280;30314;48.184;11.510;2022-09-06T10:39:13;96155.91;;;22.58;95.76
7662;BME280;30314;48.184;11.510;2022-09-06T10:41:58;96129.25;;;22.30;96.58
7662;BME280;30314;48.184;11.510;2022-09-06T10:44:42;96153.03;;;22.71;92.72
7662;BME280;30314;48.184;11.510;2022-09-06T10:47:14;96139.56;;;22.71;84.83
7662;BME280;30314;48.184;11.510;2022-09-06T10:49:44;96068.47;;;22.29;90.72
7662;BME280;30314;48.184;11.510;2022-09-06T10:52:17;96164.97;;;23.00;86.80
7662;BME280;30314;48.184;11.510;2022-09-06T10:54:46;96139.94;;;23.27;86.40
7662;BME280;30314;48.184;11.510;2022-09-06T10:57:17;96108.06;;;23.09;83.40
7662;BME280;30314;48.184;11.510;2022-09-06T11:00:08;96110.38;;;23.37;90.69
7662;BME280;30314;48.184;11.510;2022-09-06T11:02:43;96134.06;;;23.51;81.98
7662;BME280;30314;48.184;11.510;2022-09-06T11:05:17;96117.72;;;23.41;89.67
7662;BME280;30314;48.184;11.510;2022-09-06T11:08:09;96096.84;;;23.34;84.36
7662;BME280;30314;48.184;11.510;2022-09-06T11:11:03;96119.38;;;23.49;89.16
7662;BME280;30314;48.184;11.510;2022-09-06T11:13:32;96093.84;;;23.39;85.23
7662;BME280;30314;48.184;11.510;2022-09-06T11:16:05;95998.28;;;22.72;86.64
7662;BME280;30314;48.184;11.510;2022-09-06T11:18:40;96080.41;;;23.46;87.79
7662;BME280;30314;48.184;11.510;2022-09-06T11:21:29;96052.97;;;23.37;87.31
7662;BME280;30314;48.184;11.510;2022-09-06T11:24:10;96108.13;;;23.81;87.57
7662;BME280;30314;48.184;11.510;2022-09-06T11:26:43;96075.50;;;23.56;88.67
7662;BME280;30314;48.184;11.510;2022-09-06T11:29:17;95997.53;;;23.09;89.81
7662;BME280;30314;48.184;11.510;2022-09-06T11:31:52;95973.44;;;23.23;83.25
7662;BME280;30314;48.184;11.510;2022-09-06T11:34:50;95982.06;;;23.36;83.72
7662;BME280;30314;48.184;11.510;2022-09-06T11:37:26;96088.34;;;24.07;83.54
7662;BME280;30314;48.184;11.510;2022-09-06T11:40:15;96025.75;;;23.49;80.61
7662;BME280;30314;48.184;11.510;2022-09-06T11:43:16;96116.66;;;23.83;84.06
7662;BME280;30314;48.184;11.510;2022-09-06T11:45:47;96062.84;;;23.26;85.57
7662;BME280;30314;48.184;11.510;2022-09-06T11:48:30;95978.91;;;22.62;87.25
7662;BME280;30314;48.184;11.510;2022-09-06T11:51:04;96069.06;;;23.30;86.14
7662;BME280;30314;48.184;11.510;2022-09-06T11:54:00;96048.84;;;23.16;83.86
7662;BME280;30314;48.184;11.510;2022-09-06T11:56:38;96003.16;;;22.93;85.06
7662;BME280;30314;48.184;11.510;2022-09-06T11:59:17;96102.50;;;23.56;85.03
7662;BME280;30314;48.184;11.510;2022-09-06T12:02:00;96007.47;;;23.01;83.49
7662;BME280;30314;48.184;11.510;2022-09-06T12:05:08;96038.16;;;23.23;82.93
7662;BME280;30314;48.184;11.510;2022-09-06T12:07:36;96107.09;;;23.55;81.99
7662;BME280;30314;48.184;11.510;2022-09-06T12:10:40;96091.78;;;23.63;79.53
7662;BME280;30314;48.184;11.510;2022-09-06T12:16:17;96093.28;;;23.60;81.73
7662;BME280;30314;48.184;11.510;2022-09-06T12:19:00;96103.44;;;23.74;85.26
7662;BME280;30314;48.184;11.510;2022-09-06T12:21:37;96002.94;;;23.09;86.59
7662;BME280;30314;48.184;11.510;2022-09-06T12:24:09;95941.28;;;22.70;86.31
7662;BME280;30314;48.184;11.510;2022-09-06T12:27:10;96080.88;;;23.52;83.89
7662;BME280;30314;48.184;11.510;2022-09-06T12:29:52;96042.75;;;23.23;85.60
7662;BME280;30314;48.184;11.510;2022-09-06T12:32:28;95971.44;;;22.83;84.65
7662;BME280;30314;48.184;11.510;2022-09-06T12:35:04;95986.59;;;22.94;85.93
7662;BME280;30314;48.184;11.510;2022-09-06T12:37:54;96066.22;;;23.53;85.96
7662;BME280;30314;48.184;11.510;2022-09-06T12:40:27;96011.44;;;23.11;86.17
7662;BME280;30314;48.184;11.510;2022-09-06T12:42:56;96017.31;;;23.20;90.65
7662;BME280;30314;48.184;11.510;2022-09-06T12:45:25;96062.41;;;23.58;91.07
7662;BME280;30314;48.184;11.510;2022-09-06T12:48:05;96060.94;;;23.64;91.89
7662;BME280;30314;48.184;11.510;2022-09-06T12:50:34;96062.41;;;23.58;92.69
7662;BME280;30314;48.184;11.510;2022-09-06T12:53:15;96058.25;;;23.64;90.98
7662;BME280;30314;48.184;11.510;2022-09-06T12:56:01;96053.53;;;23.54;97.00
7662;BME280;30314;48.184;11.510;2022-09-06T12:58:29;96056.13;;;23.46;95.74
7662;BME280;30314;48.184;11.510;2022-09-06T13:01:03;96041.75;;;23.35;95.27
7662;BME280;30314;48.184;11.510;2022-09-06T13:03:38;95937.81;;;22.69;94.24
7662;BME280;30314;48.184;11.510;2022-09-06T13:06:10;95961.19;;;22.61;94.80
7662;BME280;30314;48.184;11.510;2022-09-06T13:08:42;96040.59;;;23.32;95.47
7662;BME280;30314;48.184;11.510;2022-09-06T13:11:14;96029.94;;;23.13;97.27
7662;BME280;30314;48.184;11.510;2022-09-06T13:13:46;96052.78;;;23.22;98.99
7662;BME280;30314;48.184;11.510;2022-09-06T13:16:20;95966.22;;;22.63;98.63
7662;BME280;30314;48.184;11.510;2022-09-06T13:18:50;96037.28;;;23.16;94.08
7662;BME280;30314;48.184;11.510;2022-09-06T13:21:26;96026.50;;;23.16;97.91
7662;BME280;30314;48.184;11.510;2022-09-06T13:23:56;95977.13;;;22.74;95.84
7662;BME280;30314;48.184;11.510;2022-09-06T13:26:34;96048.84;;;23.16;90.02
7662;BME280;30314;48.184;11.510;2022-09-06T13:29:09;96038.31;;;23.04;90.61
7662;BME280;30314;48.184;11.510;2022-09-06T13:31:37;96039.47;;;23.03;94.14
7662;BME280;30314;48.184;11.510;2022-09-06T13:34:06;96040.41;;;23.18;89.16
7662;BME280;30314;48.184;11.510;2022-09-06T13:36:34;95970.03;;;22.62;93.90
7662;BME280;30314;48.184;11.510;2022-09-06T13:39:02;95969.34;;;22.65;91.49
7662;BME280;30314;48.184;11.510;2022-09-06T13:41:36;96022.88;;;23.35;87.03
7662;BME280;30314;48.184;11.510;2022-09-06T13:44:07;96023.03;;;23.49;89.34
7662;BME280;30314;48.184;11.510;2022-09-06T13:46:43;95955.47;;;23.01;90.81
7662;BME280;30314;48.184;11.510;2022-09-06T13:49:12;96010.97;;;23.40;90.42
7662;BME280;30314;48.184;11.510;2022-09-06T13:51:40;95928.28;;;22.79;91.00
7662;BME280;30314;48.184;11.510;2022-09-06T13:54:11;96005.28;;;23.45;88.84
7662;BME280;30314;48.184;11.510;2022-09-06T13:56:39;95983.69;;;23.48;91.17
7662;BME280;30314;48.184;11.510;2022-09-06T13:59:08;96000.88;;;23.71;92.69
7662;BME280;30314;48.184;11.510;2022-09-06T14:01:37;95917.44;;;23.09;89.90
7662;BME280;30314;48.184;11.510;2022-09-06T14:04:05;95920.09;;;23.06;93.06
7662;BME280;30314;48.184;11.510;2022-09-06T14:06:35;95880.06;;;23.08;87.59
7662;BME280;30314;48.184;11.510;2022-09-06T14:09:03;96000.44;;;24.10;86.41
7662;BME280;30314;48.184;11.510;2022-09-06T14:11:35;95984.41;;;23.87;91.66
7662;BME280;30314;48.184;11.510;2022-09-06T14:14:03;96005.00;;;24.06;90.76
7662;BME280;30314;48.184;11.510;2022-09-06T14:16:32;95978.00;;;24.06;87.77
7662;BME280;30314;48.184;11.510;2022-09-06T14:19:00;95988.13;;;24.20;89.69
7662;BME280;30314;48.184;11.510;2022-09-06T14:21:27;95982.72;;;24.16;88.22
7662;BME280;30314;48.184;11.510;2022-09-06T14:23:57;95951.78;;;24.06;86.04
7662;BME280;30314;48.184;11.510;2022-09-06T14:26:30;95879.59;;;23.40;89.51
7662;BME280;30314;48.184;11.510;2022-09-06T14:28:58;95899.63;;;23.39;89.32
7662;BME280;30314;48.184;11.510;2022-09-06T14:31:27;95897.94;;;23.23;91.36
7662;BME280;30314;48.184;11.510;2022-09-06T14:33:56;95979.34;;;23.82;92.05
7662;BME280;30314;48.184;11.510;2022-09-06T14:36:26;95987.50;;;23.85;91.14
7662;BME280;30314;48.184;11.510;2022-09-06T14:38:57;95982.53;;;23.94;87.82
7662;BME280;30314;48.184;11.510;2022-09-06T14:41:25;95988.00;;;24.02;87.75
7662;BME280;30314;48.184;11.510;2022-09-06T14:43:55;95969.44;;;23.97;89.69
7662;BME280;30314;48.184;11.510;2022-09-06T14:46:29;95986.06;;;24.02;86.43
7662;BME280;30314;48.184;11.510;2022-09-06T14:48:58;95931.78;;;23.62;87.29
7662;BME280;30314;48.184;11.510;2022-09-06T14:51:28;95985.25;;;23.98;88.08
7662;BME280;30314;48.184;11.510;2022-09-06T14:54:00;95985.16;;;23.84;92.66
7662;BME280;30314;48.184;11.510;2022-09-06T14:56:28;95978.22;;;23.83;88.91
7662;BME280;30314;48.184;11.510;2022-09-06T14:58:56;95958.06;;;23.69;92.10
7662;BME280;30314;48.184;11.510;2022-09-06T15:01:27;95891.72;;;23.19;90.31
7662;BME280;30314;48.184;11.510;2022-09-06T15:04:02;95980.16;;;23.86;88.96
7662;BME280;30314;48.184;11.510;2022-09-06T15:06:32;95956.88;;;23.67;89.85
7662;BME280;30314;48.184;11.510;2022-09-06T15:09:03;95930.88;;;23.47;92.96
7662;BME280;30314;48.184;11.510;2022-09-06T15:11:35;95968.50;;;23.74;89.30
7662;BME280;30314;48.184;11.510;2022-09-06T15:14:07;95936.31;;;23.51;89.26
7662;BME280;30314;48.184;11.510;2022-09-06T15:16:35;95938.25;;;23.50;93.15
7662;BME280;30314;48.184;11.510;2022-09-06T15:19:03;95880.91;;;23.19;87.35
7662;BME280;30314;48.184;11.510;2022-09-06T15:21:30;95938.69;;;23.56;88.11
7662;BME280;30314;48.184;11.510;2022-09-06T15:23:59;95860.69;;;22.95;87.64
7662;BME280;30314;48.184;11.510;2022-09-06T15:26:29;95954.94;;;23.63;87.34
7662;BME280;30314;48.184;11.510;2022-09-06T15:28:57;95963.81;;;23.64;84.39
7662;BME280;30314;48.184;11.510;2022-09-06T15:31:25;95943.22;;;23.48;83.68
7662;BME280;30314;48.184;11.510;2022-09-06T15:33:53;95860.97;;;22.83;86.22
7662;BME280;30314;48.184;11.510;2022-09-06T15:36:20;95869.00;;;22.79;85.59
7662;BME280;30314;48.184;11.510;2022-09-06T15:38:49;95953.56;;;23.39;85.92
7662;BME280;30314;48.184;11.510;2022-09-06T15:41:21;95931.00;;;23.20;89.13
7662;BME280;30314;48.184;11.510;2022-09-06T15:43:53;95946.56;;;23.31;88.75
7662;BME280;30314;48.184;11.510;2022-09-06T15:46:39;95927.06;;;23.11;90.20
7662;BME280;30314;48.184;11.510;2022-09-06T15:49:10;95947.97;;;23.21;90.25
7662;BME280;30314;48.184;11.510;2022-09-06T15:51:38;95914.56;;;22.91;88.17
7662;BME280;30314;48.184;11.510;2022-09-06T15:54:08;95930.81;;;22.99;87.66
7662;BME280;30314;48.184;11.510;2022-09-06T15:56:36;95907.22;;;22.88;90.99
7662;BME280;30314;48.184;11.510;2022-09-06T15:59:04;95918.00;;;22.88;92.68
7662;BME280;30314;48.184;11.510;2022-09-06T16:01:33;95941.66;;;23.06;92.52
7662;BME280;30314;48.184;11.510;2022-09-06T16:04:03;95915.75;;;22.94;91.57
7662;BME280;30314;48.184;11.510;2022-09-06T16:06:33;95950.69;;;23.21;92.34
7662;BME280;30314;48.184;11.510;2022-09-06T16:09:04;95911.19;;;23.02;92.84
7662;BME280;30314;48.184;11.510;2022-09-06T16:11:33;95892.25;;;22.94;92.66
7662;BME280;30314;48.184;11.510;2022-09-06T16:14:04;95891.97;;;23.07;87.73
7662;BME280;30314;48.184;11.510;2022-09-06T16:16:33;95940.84;;;23.40;86.40
7662;BME280;30314;48.184;11.510;2022-09-06T16:19:02;95922.56;;;23.22;86.52
7662;BME280;30314;48.184;11.510;2022-09-06T16:21:31;95948.06;;;23.28;86.29
7662;BME280;30314;48.184;11.510;2022-09-06T16:24:01;95941.00;;;23.16;84.64
7662;BME280;30314;48.184;11.510;2022-09-06T16:26:31;95919.19;;;22.94;84.97
7662;BME280;30314;48.184;11.510;2022-09-06T16:28:59;95946.25;;;23.02;85.58
7662;BME280;30314;48.184;11.510;2022-09-06T16:31:29;95863.88;;;22.36;88.35
7662;BME280;30314;48.184;11.510;2022-09-06T16:34:05;95947.66;;;22.88;89.99
7662;BME280;30314;48.184;11.510;2022-09-06T16:36:33;95942.63;;;22.87;90.38
7662;BME280;30314;48.184;11.510;2022-09-06T16:39:01;95945.59;;;22.78;92.28
7662;BME280;30314;48.184;11.510;2022-09-06T16:41:37;95931.22;;;22.63;93.39
7662;BME280;30314;48.184;11.510;2022-09-06T16:44:06;95882.94;;;22.20;94.84
7662;BME280;30314;48.184;11.510;2022-09-06T16:46:35;95869.31;;;22.05;94.98
7662;BME280;30314;48.184;11.510;2022-09-06T16:49:05;95939.44;;;22.47;96.55
7662;BME280;30314;48.184;11.510;2022-09-06T16:51:33;95937.34;;;22.33;98.01
7662;BME280;30314;48.184;11.510;2022-09-06T16:54:01;95935.78;;;22.32;98.20
7662;BME280;30314;48.184;11.510;2022-09-06T16:56:30;95914.34;;;22.08;99.08
7662;BME280;30314;48.184;11.510;2022-09-06T16:59:02;95952.31;;;22.30;100.00
7662;BME280;30314;48.184;11.510;2022-09-06T17:01:31;95891.56;;;21.75;100.00
7662;BME280;30314;48.184;11.510;2022-09-06T17:04:02;95879.56;;;21.69;100.00
7662;BME280;30314;48.184;11.510;2022-09-06T17:06:33;95808.59;;;21.27;100.00
7662;BME280;30314;48.184;11.510;2022-09-06T17:09:07;95908.63;;;21.87;100.00
7662;BME280;30314;48.184;11.510;2022-09-06T17:11:36;95930.06;;;22.06;100.00
7662;BME280;30314;48.184;11.510;2022-09-06T17:14:05;95845.78;;;21.48;100.00
7662;BME280;30314;48.184;11.510;2022-09-06T17:16:33;95851.84;;;21.41;100.00
7662;BME280;30314;48.184;11.510;2022-09-06T17:19:20;95930.28;;;21.94;100.00
7662;BME280;30314;48.184;11.510;2022-09-06T17:21:47;95839.69;;;21.24;100.00
7662;BME280;30314;48.184;11.510;2022-09-06T17:24:16;95927.00;;;21.81;100.00
7662;BME280;30314;48.184;11.510;2022-09-06T17:26:43;95920.41;;;21.75;100.00
7662;BME280;30314;48.184;11.510;2022-09-06T17:29:11;95842.31;;;21.21;100.00
7662;BME280;30314;48.184;11.510;2022-09-06T17:31:39;95919.78;;;21.62;100.00
7662;BME280;30314;48.184;11.510;2022-09-06T17:34:06;95865.78;;;21.24;100.00
7662;BME280;30314;48.184;11.510;2022-09-06T17:36:36;95903.31;;;21.40;100.00
7662;BME280;30314;48.184;11.510;2022-09-06T17:39:05;95924.09;;;21.43;100.00
7662;BME280;30314;48.184;11.510;2022-09-06T17:41:35;95867.94;;;20.91;100.00
7662;BME280;30314;48.184;11.510;2022-09-06T17:44:05;95926.13;;;21.26;100.00
7662;BME280;30314;48.184;11.510;2022-09-06T17:46:33;95850.16;;;20.63;100.00
7662;BME280;30314;48.184;11.510;2022-09-06T17:49:01;95938.97;;;21.13;100.00
7662;BME280;30314;48.184;11.510;2022-09-06T17:51:31;95956.59;;;21.11;100.00
7662;BME280;30314;48.184;11.510;2022-09-06T17:54:01;95928.59;;;20.92;100.00
7662;BME280;30314;48.184;11.510;2022-09-06T17:56:29;95950.94;;;20.96;100.00
7662;BME280;30314;48.184;11.510;2022-09-06T17:58:58;95954.63;;;20.88;100.00
7662;BME280;30314;48.184;11.510;2022-09-06T18:01:29;95959.06;;;20.80;100.00
7662;BME280;30314;48.184;11.510;2022-09-06T18:03:58;95950.38;;;20.67;100.00
7662;BME280;30314;48.184;11.510;2022-09-06T18:06:27;95966.91;;;20.69;100.00
7662;BME280;30314;48.184;11.510;2022-09-06T18:09:01;95969.03;;;20.60;100.00
7662;BME280;30314;48.184;11.510;2022-09-06T18:11:32;95974.75;;;20.59;100.00
7662;BME280;30314;48.184;11.510;2022-09-06T18:14:01;95983.19;;;20.57;100.00
7662;BME280;30314;48.184;11.510;2022-09-06T18:16:31;95984.41;;;20.43;100.00